Pagina principală
METAR-TAF:

METAR-TAF

Aeroporturi :

Afton, Wyoming, Statele Unite ale Americii

Latitudine: 42-42-32N, longitudine: 110-56-32W, elevație: 1896 m

Observații meteo curente

Raportul a fost făcut în urmă cu 23 de minute, la 08:15 UTC
Vânt calm
Temperatură 7°C
Umiditate 93%
Presiune 1020 hPa
Vizibilitate: 16.1 km
Nori împrăștiați la o înălțime de 5500 picior
Nori împrăștiați la o înălțime de 7000 picior
Total acoperit la o înălțime de 12000 picior

METAR: KAFO 030815Z AUTO 00000KT 10SM SCT055 SCT070 OVC120 07/06 A3011 RMK AO2

Ora: 02:38 (08:38 UTC)


TAF: lipsă

Observații și prognoze meteo pentru peste 4.000 de aeroporturi (rapoarte METAR și TAF).

Stațiile disponibile sunt reprezentate pe hartă prin puncte galbene și roșii.

Țineți indicatorul mouse-ului pe punctul dorit pentru a vedea denumirea stației.

Apoi, faceți clic pentru a vedea observațiile și prognozele meteorologice.

Pentru a schimba harta: Pentru mărire, faceți clic pe butoanele verzi cu cruce neagră; pentru micșorare, pe butonul verde cu o liniuță; pentru hărți învecinate, pe săgețile verzi.


METAR-TAF: